Ana Sayfa
METAR-TAF:

METAR-TAF

Havaalanları :

Kuantan, Malezya

Enlem: 03-37N, Boylam: 103-13E, yükseklik: 18 m

Güncel hava durumu gözlemi

Rapor saat 06:00 UTC de 35 dakika önce yapıldı.
Rüzgar kuzeydoğudan 8 kt, kuzey/kuzeybatı ve güneydoğu arasında değişken
Sıcaklık 31°C
Nem 66%
Basınç 1012 hPa
Görüş mesafesi 10 km veya daha fazla
2000 ft yükseklikte parçalı bulutlu

METAR: WMKD 220600Z 04008KT 330V140 9999 SCT020 31/24 Q1012 NOSIG

Saat: 14:35 (06:35 UTC)


TAF: eksik

4.000'den fazla havaalanı için hava durumu gözlemleri ve tahminleri (METAR ve TAF raporları).

Kullanılabilir istasyonlar harita üzerinde sarı ve kırmızı noktalarla gösterilir.

İstasyonun adını görmek için fareyi noktanın üzerinde gezdirin.

Sonrasında hava gözlem ve tahminlerini görmek için tıklayın.

Haritayı değiştirmek için: yaklaştırmak için siyah artı işaretli yeşil düğmeye ve uzaklaştırmak için de eksi işaretli düğmeye hızla tıklayın; bitişik haritalar için yeşil okları kullanın.


METAR-TAF: